Time;durP1;ratioP1;P1;durP2;ratioP2;P2;SDS_P1;SDS_P2;PMS_P1;PMS_P2;Temp;Humidity;BMP_temperature;BMP_pressure;BME280_temperature;BME280_humidity;BME280_pressure;Samples;Min_cycle;Max_cycle;Signal;HPM_P1;HPM_P2
2023/07/26 00:01:44;;;;;;;;;;;;;;;18.53;49.76;101065.47;4852571;28;119843;-67
2023/07/26 00:04:12;;;;;;;;;;;;;;;18.54;49.56;101064.50;4853501;28;118408;-67
2023/07/26 00:06:39;;;;;;;;;;;;;;;18.53;49.80;101060.94;4852985;29;124414;-67
2023/07/26 00:09:08;;;;;;;;;;;;;;;18.54;49.81;101067.19;4850759;28;124072;-67
2023/07/26 00:11:36;;;;;;;;;;;;;;;18.52;49.79;101063.75;4849220;29;120391;-67
2023/07/26 00:14:04;;;;;;;;;;;;;;;18.52;49.82;101069.13;4850612;29;119977;-67
2023/07/26 00:16:32;;;;;;;;;;;;;;;18.52;49.94;101075.34;4842728;28;124187;-67
2023/07/26 00:19:00;;;;;;;;;;;;;;;18.53;49.84;101076.19;4841920;28;124216;-67
2023/07/26 00:21:27;;;;;;;;;;;;;;;18.53;49.70;101068.97;4836322;28;119808;-67
2023/07/26 00:23:54;;;;;;;;;;;;;;;18.53;49.90;101076.19;4846916;28;119657;-67
2023/07/26 00:26:22;;;;;;;;;;;;;;;18.53;49.70;101086.91;4848407;29;124322;-67
2023/07/26 00:28:49;;;;;;;;;;;;;;;18.53;50.01;101093.13;4845111;28;124965;-67
2023/07/26 00:31:16;;;;;;;;;;;;;;;18.52;49.92;101086.06;4848336;28;119739;-67
2023/07/26 00:33:45;;;;;;;;;;;;;;;18.49;49.79;101081.78;4848446;29;118808;-67
2023/07/26 00:36:12;;;;;;;;;;;;;;;18.45;49.89;101080.28;4839549;28;124513;-67
2023/07/26 00:38:39;;;;;;;;;;;;;;;18.45;49.91;101074.94;4844984;28;123265;-67
2023/07/26 00:41:07;;;;;;;;;;;;;;;18.44;49.96;101073.22;4846205;29;119730;-66
2023/07/26 00:43:34;;;;;;;;;;;;;;;18.44;49.81;101083.97;4853742;28;119546;-67
2023/07/26 00:46:01;;;;;;;;;;;;;;;18.44;49.99;101078.59;4853441;29;124622;-67
2023/07/26 00:48:28;;;;;;;;;;;;;;;18.44;49.96;101073.22;4848103;29;124488;-67
2023/07/26 00:50:55;;;;;;;;;;;;;;;18.43;49.93;101071.50;4845110;29;120427;-67
2023/07/26 00:53:23;;;;;;;;;;;;;;;18.41;49.88;101057.34;4844382;28;118869;-67
2023/07/26 00:55:50;;;;;;;;;;;;;;;18.40;49.89;101066.41;4841568;28;124258;-67
2023/07/26 00:58:17;;;;;;;;;;;;;;;18.39;49.82;101070.03;4851831;29;124356;-67
2023/07/26 01:00:45;;;;;;;;;;;;;;;18.37;49.81;101071.97;4831393;29;119941;-67
2023/07/26 01:03:16;;;;;;;;;;;;;;;18.35;49.95;101073.91;4855922;29;120142;-67
2023/07/26 01:06:01;;;;;;;;;;;;;;;18.31;49.78;101072.44;4853734;29;124242;-67
2023/07/26 01:08:38;;;;;;;;;;;;;;;18.28;50.12;101067.28;4851580;28;123240;-67
2023/07/26 01:11:09;;;;;;;;;;;;;;;18.26;49.88;101070.06;4851522;29;119439;-67
2023/07/26 01:13:42;;;;;;;;;;;;;;;18.24;50.06;101071.16;4844075;28;118782;-67
2023/07/26 01:16:10;;;;;;;;;;;;;;;18.22;49.91;101065.06;4850764;29;124622;-67
2023/07/26 01:18:37;;;;;;;;;;;;;;;18.21;50.10;101071.38;4847462;28;124932;-67
2023/07/26 01:21:05;;;;;;;;;;;;;;;18.20;49.96;101069.69;4851975;28;119938;-67
2023/07/26 01:23:33;;;;;;;;;;;;;;;18.18;50.03;101063.59;4839769;29;118991;-67
2023/07/26 01:26:01;;;;;;;;;;;;;;;18.15;50.13;101061.13;4844662;29;124211;-67
2023/07/26 01:28:28;;;;;;;;;;;;;;;18.14;50.01;101075.47;4848554;28;124131;-67
2023/07/26 01:30:56;;;;;;;;;;;;;;;18.11;50.02;101075.72;4846618;29;118403;-67
2023/07/26 01:33:24;;;;;;;;;;;;;;;18.09;50.01;101068.63;4852880;28;118960;-67
2023/07/26 01:35:53;;;;;;;;;;;;;;;18.08;49.97;101072.31;4846526;28;123916;-67
2023/07/26 01:38:21;;;;;;;;;;;;;;;18.05;50.15;101072.50;4852055;28;123661;-67
2023/07/26 01:40:49;;;;;;;;;;;;;;;18.04;50.02;101065.44;4841382;29;118612;-67
2023/07/26 01:43:16;;;;;;;;;;;;;;;18.03;50.22;101071.78;4847074;28;117827;-67
2023/07/26 01:45:43;;;;;;;;;;;;;;;18.01;50.10;101071.03;4853922;28;124093;-67
2023/07/26 01:48:10;;;;;;;;;;;;;;;18.00;50.18;101069.31;4844747;28;124907;-67
2023/07/26 01:50:37;;;;;;;;;;;;;;;17.99;50.05;101067.59;4844510;29;120453;-67
2023/07/26 01:53:06;;;;;;;;;;;;;;;17.96;49.99;101067.81;4841037;28;98200;-67
2023/07/26 01:55:33;;;;;;;;;;;;;;;17.93;50.22;101062.66;4852615;29;125367;-67
2023/07/26 01:58:00;;;;;;;;;;;;;;;17.90;50.00;101062.91;4851880;28;123024;-67
2023/07/26 02:00:27;;;;;;;;;;;;;;;17.87;50.05;101065.81;4853097;28;118465;-67
2023/07/26 02:02:54;;;;;;;;;;;;;;;17.84;50.11;101064.22;4853080;28;117780;-67
2023/07/26 02:05:21;;;;;;;;;;;;;;;17.80;50.06;101061.81;4851797;28;122748;-67
2023/07/26 02:07:49;;;;;;;;;;;;;;;17.78;50.09;101071.78;4853613;28;123047;-67
2023/07/26 02:10:16;;;;;;;;;;;;;;;17.75;50.26;101072.03;4844622;29;119801;-67
2023/07/26 02:12:43;;;;;;;;;;;;;;;17.71;50.28;101074.06;4853397;29;117798;-67
2023/07/26 02:15:11;;;;;;;;;;;;;;;17.67;50.18;101068.06;4851659;28;124812;-67
2023/07/26 02:17:38;;;;;;;;;;;;;;;17.65;50.17;101066.44;4850313;28;124384;-67
2023/07/26 02:20:05;;;;;;;;;;;;;;;17.60;50.27;101056.06;4836715;29;119748;-67
2023/07/26 02:22:33;;;;;;;;;;;;;;;17.59;50.44;101059.69;4852124;28;118926;-67
2023/07/26 02:25:00;;;;;;;;;;;;;;;17.55;50.20;101063.56;4851947;29;123389;-67
2023/07/26 02:27:27;;;;;;;;;;;;;;;17.51;50.16;101060.25;4845920;29;124305;-67
2023/07/26 02:29:54;;;;;;;;;;;;;;;17.48;50.33;101067.69;4849081;28;118751;-67
2023/07/26 02:32:21;;;;;;;;;;;;;;;17.45;50.46;101051.81;4840898;29;118598;-67
2023/07/26 02:34:48;;;;;;;;;;;;;;;17.42;50.29;101057.38;4843040;29;123399;-67
2023/07/26 02:37:15;;;;;;;;;;;;;;;17.38;50.39;101055.88;4840852;29;124280;-67
2023/07/26 02:39:44;;;;;;;;;;;;;;;17.37;50.33;101059.53;4846112;28;120695;-67
2023/07/26 02:42:11;;;;;;;;;;;;;;;17.32;50.72;101052.66;4850859;28;120242;-66
2023/07/26 02:44:39;;;;;;;;;;;;;;;17.29;50.46;101055.56;4853345;28;123158;-67
2023/07/26 02:47:07;;;;;;;;;;;;;;;17.26;50.38;101063.81;4852043;29;122331;-67
2023/07/26 02:49:34;;;;;;;;;;;;;;;17.25;50.38;101061.22;4850815;29;120226;-66
2023/07/26 02:52:01;;;;;;;;;;;;;;;17.24;50.58;101064.91;4853278;28;117899;-67
2023/07/26 02:54:28;;;;;;;;;;;;;;;17.23;50.37;101069.38;4851417;29;124546;-67
2023/07/26 02:56:55;;;;;;;;;;;;;;;17.20;50.49;101069.59;4845879;29;124009;-66
2023/07/26 02:59:23;;;;;;;;;;;;;;;17.18;50.53;101058.16;4846709;29;119799;-66
2023/07/26 03:01:50;;;;;;;;;;;;;;;17.17;50.44;101063.59;4843337;28;118930;-67
2023/07/26 03:04:17;;;;;;;;;;;;;;;17.15;50.56;101061.03;4845296;28;124480;-66
2023/07/26 03:06:44;;;;;;;;;;;;;;;17.12;50.62;101066.56;4840461;29;124566;-67
2023/07/26 03:09:11;;;;;;;;;;;;;;;17.09;50.48;101056.94;4843478;28;119879;-67
2023/07/26 03:11:38;;;;;;;;;;;;;;;17.08;50.62;101054.38;4844588;28;118032;-67
2023/07/26 03:14:05;;;;;;;;;;;;;;;17.05;50.65;101060.81;4851263;29;123305;-67
2023/07/26 03:16:33;;;;;;;;;;;;;;;17.03;50.44;101059.22;4846316;29;123173;-67
2023/07/26 03:19:00;;;;;;;;;;;;;;;17.01;50.59;101062.00;4847092;29;119750;-67
2023/07/26 03:21:27;;;;;;;;;;;;;;;16.99;50.60;101065.72;4845229;29;118955;-67
2023/07/26 03:23:55;;;;;;;;;;;;;;;16.98;50.67;101066.69;4847683;29;123766;-67
2023/07/26 03:26:22;;;;;;;;;;;;;;;16.93;50.65;101065.19;4851917;29;123132;-67
2023/07/26 03:28:49;;;;;;;;;;;;;;;16.90;50.55;101073.41;4841193;28;120684;-67
2023/07/26 03:31:16;;;;;;;;;;;;;;;16.88;50.77;101074.50;4851847;29;119185;-66
2023/07/26 03:33:43;;;;;;;;;;;;;;;16.85;50.56;101085.38;4851429;28;123578;-67
2023/07/26 03:36:10;;;;;;;;;;;;;;;16.83;50.71;101073.94;4852501;29;124505;-67
2023/07/26 03:38:37;;;;;;;;;;;;;;;16.80;50.74;101083.00;4850024;29;120756;-67
2023/07/26 03:41:05;;;;;;;;;;;;;;;16.77;50.71;101077.84;4850077;29;118774;-67
2023/07/26 03:43:32;;;;;;;;;;;;;;;16.73;50.70;101081.69;4840528;29;123760;-67
2023/07/26 03:45:59;;;;;;;;;;;;;;;16.72;50.85;101079.97;4847266;28;124979;-67
2023/07/26 03:48:27;;;;;;;;;;;;;;;16.70;50.88;101089.91;4850768;29;120123;-67
2023/07/26 03:50:54;;;;;;;;;;;;;;;16.68;50.77;101086.50;4850160;28;119346;-67
2023/07/26 03:53:23;;;;;;;;;;;;;;;16.67;50.82;101087.44;4845437;28;123503;-67
2023/07/26 03:55:50;;;;;;;;;;;;;;;16.63;50.92;101085.94;4849411;29;124186;-67
2023/07/26 03:58:18;;;;;;;;;;;;;;;16.61;50.89;101082.50;4844025;29;119671;-67
2023/07/26 04:00:45;;;;;;;;;;;;;;;16.60;51.05;101088.81;4845086;29;118290;-67
2023/07/26 04:03:15;;;;;;;;;;;;;;;16.60;50.98;101080.81;4848820;29;123347;-67
2023/07/26 04:05:42;;;;;;;;;;;;;;;16.60;50.88;101086.16;4844980;28;124218;-67
2023/07/26 04:08:09;;;;;;;;;;;;;;;16.61;51.09;101077.16;4847100;29;119879;-67
2023/07/26 04:10:37;;;;;;;;;;;;;;;16.61;50.89;101087.84;4842942;29;118598;-67
2023/07/26 04:13:04;;;;;;;;;;;;;;;16.63;50.90;101080.59;4852075;29;123334;-67
2023/07/26 04:15:31;;;;;;;;;;;;;;;16.61;50.92;101083.34;4851240;29;123594;-67
2023/07/26 04:17:58;;;;;;;;;;;;;;;16.63;51.15;101080.59;4845266;28;121121;-67
2023/07/26 04:20:25;;;;;;;;;;;;;;;16.63;50.92;101077.91;4852635;28;119935;-66
2023/07/26 04:22:52;;;;;;;;;;;;;;;16.62;50.99;101078.88;4848844;28;124584;-67
2023/07/26 04:25:19;;;;;;;;;;;;;;;16.61;51.04;101077.16;4849505;28;123418;-67
2023/07/26 04:27:47;;;;;;;;;;;;;;;16.61;50.99;101079.84;4842672;29;121166;-66
2023/07/26 04:30:14;;;;;;;;;;;;;;;16.61;51.09;101077.16;4844386;28;118847;-67
2023/07/26 04:32:41;;;;;;;;;;;;;;;16.61;51.13;101082.50;4849911;29;124384;-67
2023/07/26 04:35:08;;;;;;;;;;;;;;;16.61;51.06;101082.50;4846044;28;123804;-67
2023/07/26 04:37:35;;;;;;;;;;;;;;;16.62;50.92;101084.22;4853008;29;119636;-66
2023/07/26 04:40:02;;;;;;;;;;;;;;;16.61;51.12;101083.34;4855287;28;119073;-67
2023/07/26 04:42:29;;;;;;;;;;;;;;;16.60;51.18;101080.81;4849571;29;124626;-67
2023/07/26 04:44:56;;;;;;;;;;;;;;;16.59;51.11;101085.28;4845003;28;124686;-66
2023/07/26 04:47:24;;;;;;;;;;;;;;;16.59;51.24;101079.06;4855679;29;120226;-67
2023/07/26 04:49:52;;;;;;;;;;;;;;;16.59;51.23;101085.28;4855161;28;118849;-68
2023/07/26 04:52:20;;;;;;;;;;;;;;;16.63;51.30;101083.25;4861058;28;123536;-67
2023/07/26 04:54:47;;;;;;;;;;;;;;;16.66;51.32;101091.09;4853304;29;123975;-68
2023/07/26 04:57:14;;;;;;;;;;;;;;;16.69;51.34;101088.22;4851572;29;119668;-67
2023/07/26 04:59:43;;;;;;;;;;;;;;;16.75;51.38;101095.81;4852577;28;119154;-67
2023/07/26 05:02:10;;;;;;;;;;;;;;;16.78;51.31;101095.59;4853326;28;123900;-67
2023/07/26 05:04:37;;;;;;;;;;;;;;;16.82;51.41;101097.16;4850148;29;123750;-67
2023/07/26 05:07:04;;;;;;;;;;;;;;;16.85;51.41;101094.25;4853772;28;120017;-67
2023/07/26 05:09:31;;;;;;;;;;;;;;;16.88;51.35;101080.69;4852226;29;120035;-66
2023/07/26 05:11:59;;;;;;;;;;;;;;;16.92;51.41;101079.50;4852857;28;124447;-68
2023/07/26 05:14:26;;;;;;;;;;;;;;;16.95;51.41;101080.25;4853943;29;124987;-66
2023/07/26 05:16:53;;;;;;;;;;;;;;;17.02;51.34;101092.28;4854886;29;118564;-68
2023/07/26 05:19:20;;;;;;;;;;;;;;;17.07;51.33;101084.78;4844899;28;118987;-68
2023/07/26 05:21:47;;;;;;;;;;;;;;;17.13;51.47;101095.06;4852101;28;123396;-66
2023/07/26 05:24:14;;;;;;;;;;;;;;;17.21;51.36;101097.22;4850988;29;125030;-68
2023/07/26 05:26:42;;;;;;;;;;;;;;;17.27;51.36;101096.78;4847364;29;119714;-67
2023/07/26 05:29:09;;;;;;;;;;;;;;;17.34;51.39;101094.56;4851705;28;118946;-67
2023/07/26 05:31:37;;;;;;;;;;;;;;;17.39;51.39;101095.09;4848892;28;124604;-67
2023/07/26 05:34:04;;;;;;;;;;;;;;;17.43;51.63;101096.59;4853985;28;125081;-67
2023/07/26 05:36:31;;;;;;;;;;;;;;;17.44;51.16;101095.59;4837622;28;119249;-67
2023/07/26 05:38:58;;;;;;;;;;;;;;;17.45;51.21;101094.66;4842889;29;119105;-67
2023/07/26 05:41:28;;;;;;;;;;;;;;;17.47;51.10;101092.72;4850876;28;123317;-67
2023/07/26 05:43:55;;;;;;;;;;;;;;;17.50;51.39;101092.53;4854781;29;123792;-67
2023/07/26 05:46:22;;;;;;;;;;;;;;;17.51;51.16;101100.41;4853122;29;120074;-66
2023/07/26 05:48:49;;;;;;;;;;;;;;;17.55;51.31;101095.72;4847626;29;119949;-67
2023/07/26 05:51:16;;;;;;;;;;;;;;;17.58;51.24;101087.47;4848620;28;124478;-67
2023/07/26 05:53:43;;;;;;;;;;;;;;;17.60;51.29;101085.53;4845354;29;123105;-67
2023/07/26 05:56:10;;;;;;;;;;;;;;;17.65;51.42;101086.06;4848372;29;121718;-68
2023/07/26 05:58:38;;;;;;;;;;;;;;;17.67;51.47;101089.50;4852699;29;119862;-67
2023/07/26 06:01:07;;;;;;;;;;;;;;;17.73;51.33;101082.00;4846259;29;124188;-67
2023/07/26 06:03:34;;;;;;;;;;;;;;;17.79;51.51;101087.75;4847492;29;124091;-67
2023/07/26 06:06:01;;;;;;;;;;;;;;;17.89;51.53;101093.34;4845770;29;119755;-66
2023/07/26 06:08:28;;;;;;;;;;;;;;;17.99;51.73;101089.06;4848115;29;119105;-67
2023/07/26 06:10:55;;;;;;;;;;;;;;;18.12;51.59;101088.16;4842577;29;124709;-67
2023/07/26 06:13:22;;;;;;;;;;;;;;;18.24;51.66;101093.47;4849575;29;124574;-67
2023/07/26 06:15:50;;;;;;;;;;;;;;;18.38;51.60;101095.13;4848960;29;119648;-67
2023/07/26 06:18:17;;;;;;;;;;;;;;;18.49;51.78;101105.91;4849748;29;118369;-67
2023/07/26 06:20:44;;;;;;;;;;;;;;;18.58;51.77;101112.44;4845027;28;123582;-67
2023/07/26 06:23:11;;;;;;;;;;;;;;;18.66;51.69;101112.69;4852481;29;124286;-67
2023/07/26 06:25:38;;;;;;;;;;;;;;;18.73;51.55;101118.47;4844505;28;119752;-67
2023/07/26 06:28:05;;;;;;;;;;;;;;;18.81;51.68;101113.41;4850222;29;119158;-67
2023/07/26 06:30:32;;;;;;;;;;;;;;;18.89;51.51;101114.66;4845787;28;124738;-67
2023/07/26 06:33:00;;;;;;;;;;;;;;;18.99;51.45;101123.75;4846837;29;124256;-67
2023/07/26 06:35:27;;;;;;;;;;;;;;;19.09;51.65;101132.78;4847242;28;119394;-67
2023/07/26 06:37:54;;;;;;;;;;;;;;;19.20;51.64;101135.50;4848715;29;118930;-67
2023/07/26 06:40:21;;;;;;;;;;;;;;;19.30;51.51;101137.50;4849112;28;123191;-67
2023/07/26 06:42:48;;;;;;;;;;;;;;;19.40;51.58;101143.84;4843496;29;124609;-67
2023/07/26 06:45:16;;;;;;;;;;;;;;;19.45;51.38;101144.34;4849464;28;119020;-67
2023/07/26 06:47:44;;;;;;;;;;;;;;;19.49;51.31;101145.81;4845408;29;118164;-66
2023/07/26 06:50:11;;;;;;;;;;;;;;;19.52;51.39;101148.28;4846237;28;124491;-67
2023/07/26 06:52:38;;;;;;;;;;;;;;;19.55;51.33;101150.75;4857542;28;122716;-66
2023/07/26 06:55:05;;;;;;;;;;;;;;;19.59;51.27;101152.22;4852334;28;119983;-67
2023/07/26 06:57:32;;;;;;;;;;;;;;;19.62;51.18;101146.56;4851774;28;118698;-67
2023/07/26 07:00:00;;;;;;;;;;;;;;;19.64;51.16;101149.16;4848983;28;124873;-67
2023/07/26 07:02:27;;;;;;;;;;;;;;;19.64;51.24;101152.69;4845810;29;123956;-66
2023/07/26 07:04:54;;;;;;;;;;;;;;;19.63;51.14;101153.66;4850996;29;119758;-67
2023/07/26 07:07:21;;;;;;;;;;;;;;;19.62;51.18;101162.69;4837129;29;118938;-67
2023/07/26 07:09:48;;;;;;;;;;;;;;;19.64;51.15;101160.75;4848892;28;124197;-66
2023/07/26 07:12:16;;;;;;;;;;;;;;;19.64;51.18;101155.38;4842502;28;124022;-67
2023/07/26 07:14:43;;;;;;;;;;;;;;;19.64;51.27;101168.81;4852544;29;118699;-67
2023/07/26 07:17:10;;;;;;;;;;;;;;;19.63;51.24;101164.41;4850776;29;118843;-67
2023/07/26 07:19:38;;;;;;;;;;;;;;;19.64;51.24;101171.50;4840536;28;125065;-67
2023/07/26 07:22:05;;;;;;;;;;;;;;;19.65;51.23;101172.38;4850502;28;125711;-66
2023/07/26 07:24:33;;;;;;;;;;;;;;;19.64;51.31;101174.19;4852944;29;118437;-66
2023/07/26 07:27:00;;;;;;;;;;;;;;;19.64;51.25;101176.88;4850244;28;118746;-66
2023/07/26 07:29:27;;;;;;;;;;;;;;;19.63;51.30;101177.84;4851452;29;124444;-66
2023/07/26 07:31:54;;;;;;;;;;;;;;;19.61;51.17;101171.75;4851334;28;123653;-66
2023/07/26 07:34:31;;;;;;;;;;;;;;;19.56;51.19;101187.38;4847137;28;120713;-67
2023/07/26 07:36:58;;;;;;;;;;;;;;;19.51;51.25;101186.84;4852200;28;119882;-68
2023/07/26 07:39:25;;;;;;;;;;;;;;;19.45;51.23;101198.94;4849234;28;125192;-66
2023/07/26 07:41:52;;;;;;;;;;;;;;;19.42;51.28;101203.69;4855319;28;124220;-67
2023/07/26 07:44:19;;;;;;;;;;;;;;;19.38;51.22;101210.25;4851363;29;119667;-66
2023/07/26 07:46:46;;;;;;;;;;;;;;;19.35;51.24;101207.84;4845540;29;118088;-67
2023/07/26 07:49:29;;;;;;;;;;;;;;;19.32;51.31;101202.69;4843650;29;124401;-67
2023/07/26 07:51:56;;;;;;;;;;;;;;;19.28;51.28;101195.84;4852843;28;124646;-67
2023/07/26 07:54:23;;;;;;;;;;;;;;;19.26;51.38;101191.44;4846976;28;119999;-67
2023/07/26 07:56:50;;;;;;;;;;;;;;;19.28;51.46;101206.59;4856414;29;118882;-67
2023/07/26 07:59:17;;;;;;;;;;;;;;;19.28;51.62;101201.22;4853485;29;123333;-66
2023/07/26 08:01:44;;;;;;;;;;;;;;;19.28;51.39;101198.53;4850606;28;125188;-67
2023/07/26 08:04:12;;;;;;;;;;;;;;;19.32;51.72;101202.69;4849406;29;120135;-67
2023/07/26 08:06:39;;;;;;;;;;;;;;;19.34;51.81;101195.38;4847570;28;119233;-67
2023/07/26 08:09:06;;;;;;;;;;;;;;;19.36;51.81;101193.41;4854817;29;125221;-67
2023/07/26 08:11:34;;;;;;;;;;;;;;;19.38;51.75;101186.97;4855844;28;124042;-67
2023/07/26 08:14:02;;;;;;;;;;;;;;;19.43;51.75;101189.28;4854371;28;118724;-67
2023/07/26 08:16:29;;;;;;;;;;;;;;;19.48;51.88;101189.78;4847780;29;119002;-67
2023/07/26 08:19:01;;;;;;;;;;;;;;;19.54;51.93;101194.69;4845819;28;125200;-67
2023/07/26 08:21:28;;;;;;;;;;;;;;;19.64;51.98;101193.00;4839088;29;124564;-67
2023/07/26 08:23:55;;;;;;;;;;;;;;;19.81;52.28;101189.00;4844368;29;120668;-67
2023/07/26 08:26:22;;;;;;;;;;;;;;;20.01;52.48;101195.50;4848255;29;119941;-67
2023/07/26 08:28:49;;;;;;;;;;;;;;;20.20;52.45;101196.75;4848251;28;124400;-67
2023/07/26 08:31:16;;;;;;;;;;;;;;;20.39;52.47;101198.81;4855231;29;123957;-67
2023/07/26 08:33:43;;;;;;;;;;;;;;;20.59;52.33;101199.88;4848104;29;119702;-67
2023/07/26 08:36:10;;;;;;;;;;;;;;;20.76;52.34;101191.31;4853870;28;118894;-67
2023/07/26 08:38:38;;;;;;;;;;;;;;;20.94;52.49;101193.44;4849917;28;124367;-67
2023/07/26 08:41:06;;;;;;;;;;;;;;;21.12;52.38;101191.91;4845325;29;124217;-67
2023/07/26 08:43:35;;;;;;;;;;;;;;;21.28;52.35;101182.50;4851424;28;119684;-67
2023/07/26 08:46:05;;;;;;;;;;;;;;;21.45;52.33;101186.50;4851470;28;118986;-67
2023/07/26 08:48:33;;;;;;;;;;;;;;;21.61;52.19;101189.59;4853980;28;124682;-67
2023/07/26 08:51:00;;;;;;;;;;;;;;;21.79;52.18;101189.81;4850273;29;123941;-67
2023/07/26 08:53:28;;;;;;;;;;;;;;;21.95;52.27;101190.19;4851372;28;119551;-68
2023/07/26 08:55:56;;;;;;;;;;;;;;;22.08;52.04;101189.97;4852803;29;118843;-67
2023/07/26 08:58:23;;;;;;;;;;;;;;;22.20;51.94;101188.03;4853063;28;124438;-67
2023/07/26 09:00:50;;;;;;;;;;;;;;;22.31;51.81;101190.66;4846519;28;124730;-67
2023/07/26 09:03:17;;;;;;;;;;;;;;;22.38;51.71;101184.69;4854017;29;119386;-67
2023/07/26 09:05:45;;;;;;;;;;;;;;;22.47;51.85;101183.88;4854896;28;117985;-67
2023/07/26 09:08:12;;;;;;;;;;;;;;;22.55;51.65;101181.34;4852514;29;124078;-67
2023/07/26 09:10:40;;;;;;;;;;;;;;;22.65;51.80;101181.38;4848598;28;124722;-67
2023/07/26 09:13:11;;;;;;;;;;;;;;;22.78;51.59;101170.31;4853888;29;120754;-68
2023/07/26 09:15:40;;;;;;;;;;;;;;;22.87;51.71;101174.88;4845030;28;120247;-68
2023/07/26 09:18:08;;;;;;;;;;;;;;;22.95;51.50;101172.28;4853857;29;124191;-68
2023/07/26 09:20:36;;;;;;;;;;;;;;;23.03;51.63;101161.66;4850301;28;124374;-68
2023/07/26 09:23:06;;;;;;;;;;;;;;;23.09;51.46;101169.22;4849889;28;119754;-68
2023/07/26 09:25:39;;;;;;;;;;;;;;;23.16;51.37;101157.81;4851221;28;119462;-67
2023/07/26 09:28:08;;;;;;;;;;;;;;;23.26;51.46;101158.66;4853668;29;123363;-68
2023/07/26 09:30:39;;;;;;;;;;;;;;;23.38;51.49;101162.06;4853470;28;124168;-68
2023/07/26 09:33:08;;;;;;;;;;;;;;;23.46;51.50;101160.31;4853368;28;120301;-68
2023/07/26 09:35:43;;;;;;;;;;;;;;;23.51;51.15;101152.63;4854652;29;119048;-68
2023/07/26 09:38:14;;;;;;;;;;;;;;;23.56;51.32;101151.34;4855094;28;123821;-68
2023/07/26 09:40:41;;;;;;;;;;;;;;;23.58;51.36;101152.03;4853550;29;124042;-68
2023/07/26 09:43:08;;;;;;;;;;;;;;;23.65;51.07;101142.34;4852797;29;119593;-68
2023/07/26 09:45:36;;;;;;;;;;;;;;;23.74;51.14;101141.47;4855319;29;118898;-68
2023/07/26 09:48:04;;;;;;;;;;;;;;;23.78;51.08;101142.88;4846685;29;124005;-68
2023/07/26 09:50:32;;;;;;;;;;;;;;;23.82;50.94;101135.34;4851685;28;125693;-68
2023/07/26 09:53:05;;;;;;;;;;;;;;;23.90;51.13;101141.72;4853688;29;120631;-68
2023/07/26 09:55:33;;;;;;;;;;;;;;;23.97;51.11;101146.53;4849028;29;118987;-68
2023/07/26 09:58:00;;;;;;;;;;;;;;;24.05;51.05;101139.38;4849729;28;124867;-68
2023/07/26 10:00:29;;;;;;;;;;;;;;;24.15;51.06;101143.88;4846707;29;124340;-68
2023/07/26 10:03:03;;;;;;;;;;;;;;;24.31;51.00;101145.94;4847748;29;120613;-68
2023/07/26 10:05:36;;;;;;;;;;;;;;;24.45;50.96;101140.03;4840197;29;120823;-68
2023/07/26 10:08:03;;;;;;;;;;;;;;;24.51;50.96;101144.81;4852623;28;125138;-68
2023/07/26 10:10:31;;;;;;;;;;;;;;;24.53;50.73;101137.44;4853093;28;125509;-68
2023/07/26 10:12:58;;;;;;;;;;;;;;;24.53;50.62;101136.59;4844040;28;120392;-68
2023/07/26 10:15:31;;;;;;;;;;;;;;;24.55;50.41;101135.41;4846777;28;119257;-68
2023/07/26 10:17:58;;;;;;;;;;;;;;;24.56;50.48;101138.97;4852442;29;125141;-68
2023/07/26 10:20:28;;;;;;;;;;;;;;;24.54;50.24;101130.97;4846794;28;124537;-68
2023/07/26 10:23:01;;;;;;;;;;;;;;;24.50;50.16;101137.69;4837306;29;119320;-68
2023/07/26 10:25:28;;;;;;;;;;;;;;;24.41;49.92;101138.59;4842944;29;119174;-68
2023/07/26 10:27:56;;;;;;;;;;;;;;;24.28;49.98;101145.25;4829364;29;123583;-68
2023/07/26 10:30:23;;;;;;;;;;;;;;;24.13;49.63;101145.88;4849779;28;123128;-68
2023/07/26 10:32:51;;;;;;;;;;;;;;;23.97;49.83;101151.94;4844781;29;119416;-67
2023/07/26 10:35:26;;;;;;;;;;;;;;;23.80;49.83;101150.88;4845639;28;118165;-67
2023/07/26 10:37:55;;;;;;;;;;;;;;;23.62;49.79;101154.31;4850195;29;125078;-67
2023/07/26 10:40:29;;;;;;;;;;;;;;;23.45;49.90;101150.53;4847007;29;124568;-67
2023/07/26 10:42:56;;;;;;;;;;;;;;;23.29;50.01;101153.81;4846254;28;119726;-67
2023/07/26 10:45:44;;;;;;;;;;;;;;;23.16;50.08;101152.41;4843051;28;118748;-67
2023/07/26 10:48:25;;;;;;;;;;;;;;;23.08;50.21;101140.47;4849275;28;124411;-67
2023/07/26 10:50:58;;;;;;;;;;;;;;;23.09;50.59;101153.00;4852543;29;124962;-67
2023/07/26 10:53:29;;;;;;;;;;;;;;;23.15;50.78;101142.59;4850226;29;120365;-67
2023/07/26 10:56:07;;;;;;;;;;;;;;;23.24;50.88;101133.63;4851797;28;119834;-67
2023/07/26 10:58:34;;;;;;;;;;;;;;;23.38;50.92;101141.28;4847751;28;125075;-67
2023/07/26 11:01:04;;;;;;;;;;;;;;;23.51;51.00;101135.56;4843273;29;124363;-67
2023/07/26 11:03:31;;;;;;;;;;;;;;;23.58;50.73;101135.81;4847988;29;119751;-67
2023/07/26 11:05:58;;;;;;;;;;;;;;;23.57;50.46;101144.94;4842178;28;119378;-67
2023/07/26 11:08:42;;;;;;;;;;;;;;;23.49;50.23;101138.41;4851652;29;124848;-67
2023/07/26 11:11:09;;;;;;;;;;;;;;;23.43;50.29;101139.00;4853115;28;125161;-67
2023/07/26 11:13:38;;;;;;;;;;;;;;;23.38;50.03;101146.69;4849589;29;119597;-67
2023/07/26 11:16:05;;;;;;;;;;;;;;;23.35;50.46;101146.97;4851540;29;118423;-67
2023/07/26 11:18:46;;;;;;;;;;;;;;;23.39;50.33;101153.78;4845143;29;125717;-67
2023/07/26 11:21:14;;;;;;;;;;;;;;;23.47;50.58;101151.22;4844928;28;124288;-67
2023/07/26 11:23:41;;;;;;;;;;;;;;;23.57;50.59;101145.78;4847396;29;119465;-67
2023/07/26 11:26:08;;;;;;;;;;;;;;;23.69;50.89;101149.16;4844455;29;119506;-67
2023/07/26 11:28:35;;;;;;;;;;;;;;;23.85;50.85;101149.44;4840989;29;124785;-67
2023/07/26 11:31:02;;;;;;;;;;;;;;;24.01;50.64;101147.94;4849202;29;124304;-67
2023/07/26 11:33:36;;;;;;;;;;;;;;;24.13;50.50;101149.47;4846534;28;119367;-67
2023/07/26 11:36:04;;;;;;;;;;;;;;;24.26;50.49;101152.66;4851586;28;118875;-67
2023/07/26 11:38:31;;;;;;;;;;;;;;;24.39;50.61;101144.19;4840613;29;124522;-68
2023/07/26 11:40:58;;;;;;;;;;;;;;;24.53;50.33;101142.84;4844452;28;124339;-67
2023/07/26 11:43:26;;;;;;;;;;;;;;;24.64;50.43;101144.47;4848132;29;120251;-67
2023/07/26 11:45:54;;;;;;;;;;;;;;;24.75;50.31;101143.38;4846722;29;119966;-68
2023/07/26 11:48:22;;;;;;;;;;;;;;;24.80;49.82;101138.34;4851166;28;124697;-68
2023/07/26 11:50:53;;;;;;;;;;;;;;;24.86;50.11;101149.44;4851932;28;124227;-68
2023/07/26 11:53:27;;;;;;;;;;;;;;;24.92;49.84;101147.09;4845502;29;119401;-67
2023/07/26 11:56:09;;;;;;;;;;;;;;;25.01;50.03;101157.00;4851178;28;118915;-68
2023/07/26 11:58:36;;;;;;;;;;;;;;;25.10;49.82;101157.94;4846164;28;123454;-67
2023/07/26 12:01:04;;;;;;;;;;;;;;;25.16;49.79;101144.59;4850600;28;124441;-68
2023/07/26 12:03:32;;;;;;;;;;;;;;;25.24;49.71;101146.53;4846080;28;119929;-68
2023/07/26 12:05:59;;;;;;;;;;;;;;;25.33;49.45;101145.59;4840387;29;117970;-67
2023/07/26 12:08:34;;;;;;;;;;;;;;;25.40;49.79;101149.38;4837718;29;123238;-67
2023/07/26 12:11:05;;;;;;;;;;;;;;;25.52;49.88;101144.53;4838545;28;123664;-67
2023/07/26 12:13:37;;;;;;;;;;;;;;;25.61;49.36;101142.75;4845474;29;119779;-67
2023/07/26 12:16:05;;;;;;;;;;;;;;;25.65;49.63;101154.97;4846462;29;119373;-67
2023/07/26 12:18:32;;;;;;;;;;;;;;;25.67;49.53;101147.50;4849463;28;124779;-67
2023/07/26 12:21:01;;;;;;;;;;;;;;;25.64;48.92;101150.56;4845142;28;124568;-67
2023/07/26 12:23:49;;;;;;;;;;;;;;;25.57;48.87;101157.63;4844659;29;118649;-67
2023/07/26 12:26:18;;;;;;;;;;;;;;;25.47;48.76;101151.44;4846506;29;118731;-67
2023/07/26 12:28:45;;;;;;;;;;;;;;;25.37;48.93;101152.44;4840356;28;124187;-67
2023/07/26 12:31:20;;;;;;;;;;;;;;;25.31;48.99;101144.91;4842168;29;124282;-67
2023/07/26 12:33:54;;;;;;;;;;;;;;;25.25;48.97;101159.09;4851153;28;120285;-67